Flight Track Log - Related Links

Times and Time Zones

All times are in EDT time to prevent confusion due to time zone crossing. See the RAX81 flight status page for this flight to view local times or setup timezone preferences in your user account.

Time Position Orientation Groundspeed Altitude Reporting Facility
EDT Latitude Longitude Course Direction KTS MPH feet Rate Location/Type
Fri 06:00:52 AM 40.9000 -74.0500 North 130 150 2,700  Level New York TRACON
Fri 06:01:52 AM 40.9333 -74.0500 360° North 130 150 4,300 1,650 Climbing New York TRACON
Fri 06:02:52 AM 40.9667 -74.0333 21° North 141 162 6,000 1,550 Climbing New York TRACON
Fri 06:03:52 AM 41.0000 -74.0000 37° Northeast 152 175 7,400 1,400 Climbing New York TRACON
Fri 06:04:52 AM 41.0333 -73.9500 49° Northeast 155 178 8,800 1,289 Climbing New York TRACON
Fri 06:05:53 AM 41.0667 -73.9167 37° Northeast 168 193 10,000 1,207 Climbing New York TRACON
Fri 06:07:56 AM 41.1083 -73.8008 64° Northeast 173 199 12,500 1,115 Climbing Boston Center
Fri 06:08:56 AM 41.1319 -73.7492 59° Northeast 173 199 13,400 900 Climbing Boston Center
Fri 06:09:56 AM 41.1617 -73.6892 57° Northeast 178 205 14,300 750 Climbing Boston Center
Fri 06:10:56 AM 41.1833 -73.6342 62° Northeast 178 205 14,900 350 Climbing Boston Center
Fri 06:11:56 AM 41.2153 -73.5547 62° Northeast 195 224 15,000 100 Climbing Boston Center
Fri 06:12:56 AM 41.2453 -73.4864 60° Northeast 226 260 15,100 50 Climbing Boston Center
Fri 06:13:56 AM 41.2814 -73.3958 62° Northeast 242 278 15,100  Level Boston Center
Fri 06:14:56 AM 41.3072 -73.3050 69° East 247 284 15,100  Level Boston Center
Fri 06:15:56 AM 41.3222 -73.2194 77° East 253 291 15,100  Level Boston Center
Fri 06:16:56 AM 41.3397 -73.1147 77° East 258 297 15,100 -50 Level Boston Center
Fri 06:17:56 AM 41.3569 -73.0319 74° East 258 297 15,000 -100 Descending Boston Center
Fri 06:18:56 AM 41.3781 -72.9269 75° East 258 297 14,900 -50 Descending Boston Center
Fri 06:19:56 AM 41.3931 -72.8442 76° East 258 297 14,900  Level Boston Center
Fri 06:20:56 AM 41.4142 -72.7444 74° East 258 297 14,900  Level Boston Center
Fri 06:21:56 AM 41.4311 -72.6617 75° East 258 297 14,900  Level Boston Center
Fri 06:22:56 AM 41.4500 -72.5592 76° East 258 297 14,900  Level Boston Center
Fri 06:23:28 AM 41.4625 -72.5067 72° East 256 295 14,900  Level Boston Center
Fri 06:23:56 AM 41.4667 -72.4761 80° East 258 297 14,900 -409 Level Boston Center
Fri 06:24:56 AM 41.5042 -72.3819 62° Northeast 258 297 14,300 -550 Descending Boston Center
Fri 06:25:56 AM 41.5353 -72.3014 63° Northeast 265 305 13,800 -650 Descending Boston Center
Fri 06:26:56 AM 41.5789 -72.1958 61° Northeast 278 320 13,000 -650 Descending Boston Center
Fri 06:27:56 AM 41.6058 -72.1125 67° East 278 320 12,500 -650 Descending Boston Center
Fri 06:28:56 AM 41.6431 -72.0039 65° Northeast 278 320 11,700 -700 Descending Boston Center
Fri 06:29:56 AM 41.6678 -71.9147 70° East 283 326 11,100 -700 Descending Boston Center
Fri 06:30:56 AM 41.7006 -71.8061 68° East 283 326 10,300 -650 Descending Boston Center
Fri 06:31:56 AM 41.7417 -71.7417 49° Northeast 260 299 9,800 -800 Descending Boston Center
Fri 06:32:56 AM 41.8017 -71.6714 41° Northeast 254 292 8,700 -900 Descending Boston Center
Fri 06:33:56 AM 41.8556 -71.6122 39° Northeast 254 292 8,000 -650 Descending Boston Center
Fri 06:34:56 AM 41.9092 -71.5531 39° Northeast 249 287 7,400 -600 Descending Boston Center
Fri 06:35:56 AM 41.9631 -71.4936 39° Northeast 249 287 6,800 -600 Descending Boston Center
Fri 06:36:56 AM 42.0019 -71.4231 53° Northeast 242 278 6,200 -650 Descending Boston Center
Fri 06:37:56 AM 42.0261 -71.3306 71° East 248 285 5,500 -600 Descending Boston Center
Fri 06:38:56 AM 42.0481 -71.2436 71° East 248 285 5,000 -450 Descending Boston Center
Fri 06:39:56 AM 42.0722 -71.1647 68° East 243 280 4,600 -600 Descending Boston Center
Fri 06:40:56 AM 42.1111 -71.0911 55° Northeast 231 266 3,800 -774 Descending Boston Center
Fri 06:41:29 AM 42.1333 -71.0500 54° Northeast 237 273 3,400 -527 Descending KA90
Fri 06:42:27 AM 42.1667 -70.9833 56° Northeast 234 269 3,000 -414 Descending KA90

Login

Don't have an account? Register now (free) for customized features, flight alerts, and more!